AVA8491 SKSM-SKBO
Flight info
| Callsign | AVA8491 |
|---|---|
| Flight time | 0h 59m |
| Altitude | 35000 |
| Route | SUPLI1A LOKOV UG444 EJA UQ119 ILSEV ILSEV5E |
| Aircraft | A320/M-SDE3FGHIRWY/LB1 |
Departure
| Time | 2026-05-05 22:47 |
|---|---|
| Airport | Simón Bolívar International Airport (SKSM) |
Arrival
| Time | 2026-05-05 23:46 |
|---|---|
| Airport | El Dorado International Airport (SKBO) |
| Time | Latitude | Longitude | Altitude | Speed | Heading |
|---|---|---|---|---|---|
| 2026-05-05 22:12 | 11.11852 | -74.23220 | 39 ft | 0 kts | 270° |
| 2026-05-05 22:38 | 11.11852 | -74.23204 | 39 ft | 4 kts | 277° |
| 2026-05-05 22:38 | 11.11845 | -74.23179 | 38 ft | 4 kts | 304° |
| 2026-05-05 22:38 | 11.11826 | -74.23164 | 34 ft | 3 kts | 357° |
| 2026-05-05 22:39 | 11.11806 | -74.23163 | 37 ft | 0 kts | 360° |
| 2026-05-05 22:41 | 11.11814 | -74.23163 | 37 ft | 4 kts | 0° |
| 2026-05-05 22:41 | 11.11864 | -74.23160 | 38 ft | 9 kts | 12° |
| 2026-05-05 22:41 | 11.11882 | -74.23157 | 38 ft | 0 kts | 11° |
| 2026-05-05 22:43 | 11.11890 | -74.23155 | 38 ft | 5 kts | 11° |
| 2026-05-05 22:44 | 11.11967 | -74.23138 | 38 ft | 17 kts | 12° |
| 2026-05-05 22:44 | 11.12113 | -74.23107 | 36 ft | 20 kts | 11° |
| 2026-05-05 22:44 | 11.12176 | -74.23068 | 36 ft | 5 kts | 143° |
| 2026-05-05 22:44 | 11.12145 | -74.23066 | 35 ft | 11 kts | 180° |
| 2026-05-05 22:45 | 11.12011 | -74.23063 | 35 ft | 27 kts | 178° |
| 2026-05-05 22:45 | 11.11796 | -74.23059 | 34 ft | 32 kts | 179° |
| 2026-05-05 22:45 | 11.11585 | -74.23054 | 33 ft | 30 kts | 179° |
| 2026-05-05 22:45 | 11.11377 | -74.23050 | 34 ft | 28 kts | 179° |
| 2026-05-05 22:46 | 11.11245 | -74.23022 | 34 ft | 15 kts | 155° |
| 2026-05-05 22:46 | 11.11235 | -74.23045 | 34 ft | 2 kts | 318° |
| 2026-05-05 22:46 | 11.11289 | -74.23049 | 34 ft | 24 kts | 358° |
| 2026-05-05 22:46 | 11.11753 | -74.23058 | 34 ft | 105 kts | 359° |
| 2026-05-05 22:47 | 11.12681 | -74.23073 | 218 ft | 148 kts | 0° |
| 2026-05-05 22:47 | 11.13707 | -74.23220 | 902 ft | 154 kts | 335° |
| 2026-05-05 22:47 | 11.14530 | -74.23987 | 1293 ft | 175 kts | 298° |
| 2026-05-05 22:47 | 11.14708 | -74.25254 | 1681 ft | 192 kts | 259° |
| 2026-05-05 22:48 | 11.13975 | -74.26390 | 2192 ft | 201 kts | 216° |
| 2026-05-05 22:48 | 11.12699 | -74.26983 | 2752 ft | 201 kts | 202° |
| 2026-05-05 22:48 | 11.11381 | -74.27502 | 3283 ft | 205 kts | 201° |
| 2026-05-05 22:48 | 11.10010 | -74.28031 | 3594 ft | 222 kts | 201° |
| 2026-05-05 22:49 | 11.08475 | -74.28646 | 3807 ft | 250 kts | 202° |
| 2026-05-05 22:49 | 11.06782 | -74.29330 | 4204 ft | 272 kts | 202° |
| 2026-05-05 22:49 | 11.04984 | -74.30055 | 4851 ft | 282 kts | 202° |
| 2026-05-05 22:49 | 11.03149 | -74.30796 | 5680 ft | 285 kts | 202° |
| 2026-05-05 22:50 | 11.01293 | -74.31545 | 6500 ft | 288 kts | 202° |
| 2026-05-05 22:50 | 10.99418 | -74.32303 | 7269 ft | 292 kts | 201° |
| 2026-05-05 22:50 | 10.97513 | -74.33056 | 8023 ft | 296 kts | 197° |
| 2026-05-05 22:50 | 10.95481 | -74.33412 | 8773 ft | 298 kts | 180° |
| 2026-05-05 22:51 | 10.93412 | -74.33199 | 9559 ft | 300 kts | 170° |
| 2026-05-05 22:51 | 10.91343 | -74.32870 | 10305 ft | 303 kts | 170° |
| 2026-05-05 22:51 | 10.89187 | -74.32527 | 10567 ft | 325 kts | 169° |
| 2026-05-05 22:51 | 10.86880 | -74.32161 | 10766 ft | 345 kts | 169° |
| 2026-05-05 22:52 | 10.84470 | -74.31779 | 11269 ft | 354 kts | 169° |
| 2026-05-05 22:52 | 10.82025 | -74.31397 | 11892 ft | 357 kts | 169° |
| 2026-05-05 22:52 | 10.79556 | -74.31018 | 12532 ft | 361 kts | 169° |
| 2026-05-05 22:52 | 10.77065 | -74.30636 | 13169 ft | 364 kts | 168° |
| 2026-05-05 22:53 | 10.74552 | -74.30247 | 13789 ft | 367 kts | 168° |
| 2026-05-05 22:53 | 10.72050 | -74.29860 | 14337 ft | 370 kts | 168° |
| 2026-05-05 22:53 | 10.69496 | -74.29466 | 14896 ft | 373 kts | 168° |
| 2026-05-05 22:53 | 10.66921 | -74.29067 | 15452 ft | 375 kts | 168° |
| 2026-05-05 22:54 | 10.64329 | -74.28666 | 15999 ft | 378 kts | 168° |
| 2026-05-05 22:54 | 10.61720 | -74.28262 | 16542 ft | 381 kts | 168° |
| 2026-05-05 22:54 | 10.59087 | -74.27853 | 17074 ft | 384 kts | 168° |
| 2026-05-05 22:54 | 10.56437 | -74.27441 | 17607 ft | 387 kts | 169° |
| 2026-05-05 22:55 | 10.53763 | -74.27028 | 18127 ft | 390 kts | 169° |
| 2026-05-05 22:55 | 10.51069 | -74.26613 | 18568 ft | 393 kts | 169° |
| 2026-05-05 22:55 | 10.48359 | -74.26193 | 18980 ft | 396 kts | 169° |
| 2026-05-05 22:55 | 10.45620 | -74.25769 | 19373 ft | 400 kts | 169° |
| 2026-05-05 22:56 | 10.42851 | -74.25340 | 19767 ft | 404 kts | 169° |
| 2026-05-05 22:56 | 10.40054 | -74.24904 | 20153 ft | 408 kts | 169° |
| 2026-05-05 22:56 | 10.37238 | -74.24467 | 20550 ft | 412 kts | 170° |
| 2026-05-05 22:56 | 10.34394 | -74.24025 | 20927 ft | 416 kts | 170° |
| 2026-05-05 22:57 | 10.31520 | -74.23582 | 21304 ft | 419 kts | 170° |
| 2026-05-05 22:57 | 10.28620 | -74.23130 | 21677 ft | 423 kts | 170° |
| 2026-05-05 22:57 | 10.25702 | -74.22674 | 22045 ft | 427 kts | 170° |
| 2026-05-05 22:57 | 10.22784 | -74.22218 | 22411 ft | 430 kts | 171° |
| 2026-05-05 22:58 | 10.19808 | -74.21756 | 22774 ft | 434 kts | 171° |
| 2026-05-05 22:58 | 10.16817 | -74.21294 | 23138 ft | 437 kts | 171° |
| 2026-05-05 22:58 | 10.13799 | -74.20830 | 23503 ft | 440 kts | 171° |
| 2026-05-05 22:58 | 10.10765 | -74.20366 | 23809 ft | 442 kts | 171° |
| 2026-05-05 22:59 | 10.07716 | -74.19899 | 24126 ft | 444 kts | 171° |
| 2026-05-05 22:59 | 10.04653 | -74.19428 | 24446 ft | 446 kts | 171° |
| 2026-05-05 22:59 | 10.01578 | -74.18952 | 24762 ft | 448 kts | 171° |
| 2026-05-05 22:59 | 9.98487 | -74.18471 | 25073 ft | 450 kts | 171° |
| 2026-05-05 23:00 | 9.92268 | -74.17511 | 25681 ft | 454 kts | 171° |
| 2026-05-05 23:00 | 9.89139 | -74.17029 | 25983 ft | 456 kts | 171° |
| 2026-05-05 23:00 | 9.85998 | -74.16546 | 26279 ft | 458 kts | 171° |
| 2026-05-05 23:01 | 9.82842 | -74.16061 | 26561 ft | 460 kts | 171° |
| 2026-05-05 23:01 | 9.79675 | -74.15573 | 26866 ft | 461 kts | 171° |
| 2026-05-05 23:01 | 9.76494 | -74.15082 | 27177 ft | 463 kts | 171° |
| 2026-05-05 23:01 | 9.73302 | -74.14590 | 27463 ft | 465 kts | 171° |
| 2026-05-05 23:02 | 9.70092 | -74.14096 | 27725 ft | 467 kts | 171° |
| 2026-05-05 23:02 | 9.66870 | -74.13600 | 28014 ft | 469 kts | 171° |
| 2026-05-05 23:02 | 9.63644 | -74.13102 | 28301 ft | 470 kts | 171° |
| 2026-05-05 23:02 | 9.60402 | -74.12599 | 28546 ft | 472 kts | 171° |
| 2026-05-05 23:03 | 9.57148 | -74.12095 | 28783 ft | 474 kts | 171° |
| 2026-05-05 23:03 | 9.53880 | -74.11589 | 29047 ft | 476 kts | 171° |
| 2026-05-05 23:03 | 9.50604 | -74.11081 | 29314 ft | 477 kts | 171° |
| 2026-05-05 23:03 | 9.47319 | -74.10571 | 29544 ft | 479 kts | 171° |
| 2026-05-05 23:04 | 9.44061 | -74.10069 | 29791 ft | 480 kts | 171° |
| 2026-05-05 23:04 | 9.40753 | -74.09562 | 30048 ft | 481 kts | 171° |
| 2026-05-05 23:04 | 9.37444 | -74.09056 | 30308 ft | 481 kts | 171° |
| 2026-05-05 23:04 | 9.34140 | -74.08550 | 30625 ft | 480 kts | 171° |
| 2026-05-05 23:05 | 9.30842 | -74.08043 | 30919 ft | 479 kts | 171° |
| 2026-05-05 23:05 | 9.27556 | -74.07536 | 31239 ft | 477 kts | 171° |
| 2026-05-05 23:05 | 9.24272 | -74.07028 | 31531 ft | 477 kts | 171° |
| 2026-05-05 23:05 | 9.20983 | -74.06522 | 31818 ft | 477 kts | 171° |
| 2026-05-05 23:06 | 9.17701 | -74.06021 | 32125 ft | 476 kts | 171° |
| 2026-05-05 23:06 | 9.14426 | -74.05521 | 32439 ft | 475 kts | 171° |
| 2026-05-05 23:06 | 9.11152 | -74.05020 | 32732 ft | 475 kts | 171° |
| 2026-05-05 23:06 | 9.07881 | -74.04519 | 33029 ft | 475 kts | 171° |
| 2026-05-05 23:07 | 9.04619 | -74.04017 | 33353 ft | 474 kts | 171° |
| 2026-05-05 23:07 | 9.01358 | -74.03517 | 33675 ft | 473 kts | 171° |
| 2026-05-05 23:07 | 8.98099 | -74.03020 | 33972 ft | 473 kts | 171° |
| 2026-05-05 23:07 | 8.94887 | -74.02528 | 34251 ft | 472 kts | 171° |
| 2026-05-05 23:08 | 8.91642 | -74.02030 | 34546 ft | 471 kts | 171° |
| 2026-05-05 23:08 | 8.88403 | -74.01530 | 34789 ft | 471 kts | 171° |
| 2026-05-05 23:08 | 8.81936 | -74.00534 | 34863 ft | 469 kts | 171° |
| 2026-05-05 23:09 | 8.75496 | -73.99546 | 34864 ft | 468 kts | 171° |
| 2026-05-05 23:09 | 8.69070 | -73.98561 | 34867 ft | 467 kts | 171° |
| 2026-05-05 23:10 | 8.62641 | -73.97575 | 34867 ft | 467 kts | 171° |
| 2026-05-05 23:10 | 8.56218 | -73.96590 | 34882 ft | 467 kts | 171° |
| 2026-05-05 23:11 | 8.49838 | -73.95616 | 34882 ft | 467 kts | 171° |
| 2026-05-05 23:11 | 8.43415 | -73.94635 | 34895 ft | 467 kts | 171° |
| 2026-05-05 23:12 | 8.36994 | -73.93652 | 34895 ft | 467 kts | 171° |
| 2026-05-05 23:12 | 8.30570 | -73.92663 | 34883 ft | 467 kts | 171° |
| 2026-05-05 23:13 | 8.24152 | -73.91680 | 34884 ft | 467 kts | 171° |
| 2026-05-05 23:13 | 8.17721 | -73.90696 | 34882 ft | 467 kts | 171° |
| 2026-05-05 23:14 | 8.11295 | -73.89716 | 34888 ft | 467 kts | 171° |
| 2026-05-05 23:14 | 8.04875 | -73.88742 | 34887 ft | 467 kts | 171° |
| 2026-05-05 23:15 | 7.98454 | -73.88035 | 34884 ft | 467 kts | 175° |
| 2026-05-05 23:15 | 7.91971 | -73.87605 | 34884 ft | 467 kts | 176° |
| 2026-05-05 23:16 | 7.85490 | -73.87181 | 34885 ft | 467 kts | 175° |
| 2026-05-05 23:16 | 7.79016 | -73.86676 | 34886 ft | 466 kts | 175° |
| 2026-05-05 23:17 | 7.72540 | -73.86135 | 34880 ft | 466 kts | 175° |
| 2026-05-05 23:17 | 7.66074 | -73.85603 | 34884 ft | 466 kts | 175° |
| 2026-05-05 23:18 | 7.59650 | -73.85084 | 34889 ft | 466 kts | 175° |
| 2026-05-05 23:18 | 7.53189 | -73.84572 | 34890 ft | 465 kts | 175° |
| 2026-05-05 23:19 | 7.46733 | -73.84066 | 34892 ft | 465 kts | 175° |
| 2026-05-05 23:19 | 7.40274 | -73.83550 | 34896 ft | 465 kts | 175° |
| 2026-05-05 23:20 | 7.33824 | -73.83032 | 34891 ft | 465 kts | 175° |
| 2026-05-05 23:20 | 7.27374 | -73.82515 | 34896 ft | 465 kts | 175° |
| 2026-05-05 23:21 | 7.20926 | -73.81997 | 34890 ft | 465 kts | 175° |
| 2026-05-05 23:21 | 7.14481 | -73.81480 | 34892 ft | 465 kts | 175° |
| 2026-05-05 23:22 | 7.08030 | -73.80965 | 34890 ft | 465 kts | 175° |
| 2026-05-05 23:22 | 7.01572 | -73.80838 | 34803 ft | 465 kts | 187° |
| 2026-05-05 23:23 | 6.95205 | -73.82000 | 34798 ft | 465 kts | 190° |
| 2026-05-05 23:23 | 6.88837 | -73.83195 | 34819 ft | 466 kts | 190° |
| 2026-05-05 23:24 | 6.82508 | -73.84365 | 34842 ft | 466 kts | 190° |
| 2026-05-05 23:24 | 6.76132 | -73.85555 | 34863 ft | 466 kts | 190° |
| 2026-05-05 23:25 | 6.69762 | -73.86751 | 34905 ft | 466 kts | 190° |
| 2026-05-05 23:25 | 6.63387 | -73.87955 | 34916 ft | 466 kts | 190° |
| 2026-05-05 23:26 | 6.57009 | -73.89145 | 34932 ft | 466 kts | 190° |
| 2026-05-05 23:26 | 6.50638 | -73.90335 | 34930 ft | 466 kts | 190° |
| 2026-05-05 23:27 | 6.44259 | -73.91529 | 34934 ft | 466 kts | 190° |
| 2026-05-05 23:27 | 6.37868 | -73.92720 | 34956 ft | 467 kts | 190° |
| 2026-05-05 23:28 | 6.31490 | -73.93911 | 34946 ft | 467 kts | 190° |
| 2026-05-05 23:28 | 6.25101 | -73.95109 | 34974 ft | 467 kts | 190° |
| 2026-05-05 23:29 | 6.18720 | -73.96307 | 34976 ft | 466 kts | 189° |
| 2026-05-05 23:29 | 6.12345 | -73.97495 | 35018 ft | 466 kts | 189° |
| 2026-05-05 23:30 | 6.07055 | -73.98477 | 35024 ft | 465 kts | 189° |
| 2026-05-05 23:30 | 5.99621 | -73.99866 | 35060 ft | 465 kts | 189° |
| 2026-05-05 23:31 | 5.93267 | -74.01069 | 35043 ft | 465 kts | 190° |
| 2026-05-05 23:31 | 5.90077 | -74.01679 | 34329 ft | 470 kts | 190° |
| 2026-05-05 23:31 | 5.86831 | -74.02301 | 33086 ft | 481 kts | 190° |
| 2026-05-05 23:32 | 5.83555 | -74.02927 | 32036 ft | 488 kts | 189° |
| 2026-05-05 23:32 | 5.80208 | -74.03562 | 31069 ft | 491 kts | 189° |
| 2026-05-05 23:32 | 5.77941 | -74.03990 | 30511 ft | 491 kts | 189° |
| 2026-05-05 23:32 | 5.74592 | -74.04625 | 29733 ft | 488 kts | 189° |
| 2026-05-05 23:33 | 5.70187 | -74.05461 | 28630 ft | 485 kts | 189° |
| 2026-05-05 23:33 | 5.67956 | -74.05884 | 28122 ft | 482 kts | 189° |
| 2026-05-05 23:33 | 5.63617 | -74.06703 | 27161 ft | 476 kts | 189° |
| 2026-05-05 23:33 | 5.60380 | -74.07315 | 26445 ft | 471 kts | 189° |
| 2026-05-05 23:34 | 5.58212 | -74.07727 | 25934 ft | 468 kts | 189° |
| 2026-05-05 23:34 | 5.55025 | -74.08333 | 25297 ft | 464 kts | 189° |
| 2026-05-05 23:34 | 5.51871 | -74.08979 | 24649 ft | 461 kts | 195° |
| 2026-05-05 23:34 | 5.48955 | -74.10179 | 24049 ft | 457 kts | 207° |
| 2026-05-05 23:35 | 5.46164 | -74.11689 | 23369 ft | 454 kts | 207° |
| 2026-05-05 23:35 | 5.43398 | -74.13197 | 22667 ft | 451 kts | 207° |
| 2026-05-05 23:35 | 5.40658 | -74.14694 | 22058 ft | 446 kts | 207° |
| 2026-05-05 23:35 | 5.37943 | -74.16178 | 21432 ft | 442 kts | 207° |
| 2026-05-05 23:36 | 5.35251 | -74.17647 | 20847 ft | 438 kts | 207° |
| 2026-05-05 23:36 | 5.32588 | -74.19098 | 20265 ft | 434 kts | 207° |
| 2026-05-05 23:36 | 5.29946 | -74.20536 | 19690 ft | 430 kts | 207° |
| 2026-05-05 23:36 | 5.27327 | -74.21960 | 19119 ft | 426 kts | 206° |
| 2026-05-05 23:37 | 5.24731 | -74.23371 | 18574 ft | 423 kts | 206° |
| 2026-05-05 23:37 | 5.22146 | -74.24774 | 17763 ft | 424 kts | 206° |
| 2026-05-05 23:37 | 5.19570 | -74.26172 | 17284 ft | 417 kts | 206° |
| 2026-05-05 23:37 | 5.17039 | -74.27548 | 16670 ft | 414 kts | 206° |
| 2026-05-05 23:38 | 5.14497 | -74.28929 | 15902 ft | 416 kts | 206° |
| 2026-05-05 23:38 | 5.11962 | -74.30310 | 15287 ft | 413 kts | 206° |
| 2026-05-05 23:38 | 5.09447 | -74.31682 | 14716 ft | 410 kts | 206° |
| 2026-05-05 23:38 | 5.06956 | -74.33041 | 14187 ft | 406 kts | 206° |
| 2026-05-05 23:39 | 5.04485 | -74.34387 | 13608 ft | 402 kts | 206° |
| 2026-05-05 23:39 | 5.02045 | -74.35714 | 13208 ft | 393 kts | 206° |
| 2026-05-05 23:39 | 4.99691 | -74.36996 | 13033 ft | 378 kts | 206° |
| 2026-05-05 23:39 | 4.97427 | -74.38229 | 12890 ft | 363 kts | 206° |
| 2026-05-05 23:40 | 4.95246 | -74.39416 | 12775 ft | 349 kts | 206° |
| 2026-05-05 23:40 | 4.93076 | -74.40301 | 12800 ft | 327 kts | 188° |
| 2026-05-05 23:40 | 4.90887 | -74.40321 | 12822 ft | 307 kts | 166° |
| 2026-05-05 23:40 | 4.88974 | -74.39565 | 12835 ft | 288 kts | 145° |
| 2026-05-05 23:41 | 4.87447 | -74.38358 | 12852 ft | 272 kts | 139° |
| 2026-05-05 23:41 | 4.86178 | -74.37027 | 12869 ft | 257 kts | 125° |
| 2026-05-05 23:41 | 4.85156 | -74.35582 | 12679 ft | 253 kts | 125° |
| 2026-05-05 23:41 | 4.84112 | -74.34169 | 12373 ft | 252 kts | 126° |
| 2026-05-05 23:42 | 4.83053 | -74.32772 | 12071 ft | 251 kts | 126° |
| 2026-05-05 23:42 | 4.81995 | -74.31375 | 11757 ft | 252 kts | 126° |
| 2026-05-05 23:42 | 4.80936 | -74.29977 | 11453 ft | 252 kts | 126° |
| 2026-05-05 23:42 | 4.79879 | -74.28580 | 11145 ft | 252 kts | 126° |
| 2026-05-05 23:43 | 4.78835 | -74.27201 | 10850 ft | 243 kts | 127° |
| 2026-05-05 23:43 | 4.77839 | -74.25885 | 10568 ft | 232 kts | 126° |
| 2026-05-05 23:43 | 4.76890 | -74.24633 | 10323 ft | 218 kts | 126° |
| 2026-05-05 23:43 | 4.76018 | -74.23481 | 10059 ft | 202 kts | 126° |
| 2026-05-05 23:44 | 4.75208 | -74.22411 | 9806 ft | 183 kts | 126° |
| 2026-05-05 23:44 | 4.74472 | -74.21440 | 9558 ft | 168 kts | 126° |
| 2026-05-05 23:44 | 4.73780 | -74.20526 | 9333 ft | 162 kts | 126° |
| 2026-05-05 23:44 | 4.73107 | -74.19633 | 9106 ft | 159 kts | 127° |
| 2026-05-05 23:45 | 4.72442 | -74.18754 | 8857 ft | 157 kts | 127° |
| 2026-05-05 23:45 | 4.71797 | -74.17894 | 8650 ft | 153 kts | 126° |
| 2026-05-05 23:45 | 4.71157 | -74.17046 | 8444 ft | 153 kts | 128° |
| 2026-05-05 23:45 | 4.70527 | -74.16216 | 8375 ft | 140 kts | 127° |
| 2026-05-05 23:46 | 4.70037 | -74.15571 | 8373 ft | 92 kts | 127° |
| 2026-05-05 23:46 | 4.69758 | -74.15186 | 8373 ft | 52 kts | 115° |
| 2026-05-05 23:46 | 4.69709 | -74.14932 | 8373 ft | 25 kts | 95° |
| 2026-05-05 23:46 | 4.69778 | -74.14801 | 8372 ft | 22 kts | 38° |
| 2026-05-05 23:47 | 4.69843 | -74.14708 | 8373 ft | 15 kts | 106° |
| 2026-05-05 23:47 | 4.69782 | -74.14621 | 8371 ft | 16 kts | 126° |
| 2026-05-05 23:47 | 4.69725 | -74.14536 | 8371 ft | 9 kts | 85° |
| 2026-05-05 23:47 | 4.69762 | -74.14506 | 8373 ft | 2 kts | 37° |
| 2026-05-05 23:48 | 4.69764 | -74.14505 | 8373 ft | 0 kts | 37° |